createdAt,value
2023-04-01T00:00:31.176Z,-3.90
2023-04-01T00:02:59.122Z,-3.60
2023-04-01T00:05:26.640Z,-3.80
2023-04-01T00:07:54.153Z,-3.40
2023-04-01T00:10:21.688Z,-3.70
2023-04-01T00:12:49.281Z,-3.60
2023-04-01T00:15:17.219Z,-3.60
2023-04-01T00:17:44.853Z,-3.80
2023-04-01T00:20:13.532Z,-3.60
2023-04-01T00:22:42.311Z,-4.20
2023-04-01T00:25:10.404Z,-3.90
2023-04-01T00:27:38.115Z,-3.90
2023-04-01T00:30:06.741Z,-3.60
2023-04-01T00:32:34.894Z,-3.70
2023-04-01T00:35:02.722Z,-3.80
2023-04-01T00:37:30.318Z,-3.90
2023-04-01T00:39:58.705Z,-4.00
2023-04-01T00:42:27.014Z,-4.00
2023-04-01T00:44:56.223Z,-4.30
2023-04-01T00:47:26.900Z,-4.00
2023-04-01T00:49:56.279Z,-4.10
2023-04-01T00:52:26.143Z,-4.00
2023-04-01T00:55:00.306Z,-4.10
2023-04-01T00:57:37.758Z,-3.10
2023-04-01T01:00:12.375Z,-4.00
2023-04-01T01:02:42.421Z,-3.80
2023-04-01T01:05:14.958Z,-4.10
2023-04-01T01:07:56.547Z,-4.10
2023-04-01T01:10:36.203Z,-4.30
2023-04-01T01:13:12.691Z,-4.10
2023-04-01T01:15:48.314Z,-4.20
2023-04-01T01:18:40.776Z,-4.20
2023-04-01T01:21:36.491Z,-4.20
2023-04-01T01:24:30.185Z,-4.90
2023-04-01T01:27:03.101Z,-4.80
2023-04-01T01:29:55.759Z,-4.40
2023-04-01T01:32:38.254Z,-3.90
2023-04-01T01:35:27.535Z,-4.30
2023-04-01T01:38:02.965Z,-4.30
2023-04-01T01:40:32.968Z,-4.30
2023-04-01T01:43:06.340Z,-4.60
2023-04-01T01:45:37.171Z,-5.00
2023-04-01T01:48:06.538Z,-4.70
2023-04-01T01:50:35.028Z,-4.30
2023-04-01T01:53:09.648Z,-4.30
2023-04-01T01:55:40.241Z,-4.50
2023-04-01T01:58:25.570Z,-4.20
2023-04-01T02:01:04.862Z,-4.20
2023-04-01T02:03:36.323Z,-4.20
2023-04-01T02:06:07.252Z,-4.30
2023-04-01T02:08:52.470Z,-4.50
2023-04-01T02:11:22.757Z,-4.10
2023-04-01T02:14:08.688Z,-4.40
2023-04-01T02:16:58.433Z,-4.00
2023-04-01T02:19:34.044Z,-4.10
2023-04-01T02:22:04.900Z,-3.90
2023-04-01T02:24:36.380Z,-4.10
2023-04-01T02:27:05.015Z,-4.10
2023-04-01T02:29:33.226Z,-4.20
2023-04-01T02:32:02.159Z,-4.00
2023-04-01T02:34:29.906Z,-4.70
2023-04-01T02:36:58.804Z,-4.40
2023-04-01T02:39:27.468Z,-4.50
2023-04-01T02:41:55.327Z,-4.50
2023-04-01T02:44:22.925Z,-4.50
2023-04-01T02:46:50.928Z,-4.60
2023-04-01T02:49:18.435Z,-3.50
2023-04-01T02:51:46.097Z,-4.70
2023-04-01T02:54:13.563Z,-4.40
2023-04-01T02:56:41.004Z,-4.40
2023-04-01T02:59:08.452Z,-4.40
2023-04-01T03:01:36.110Z,-4.70
2023-04-01T03:04:04.157Z,-4.50
2023-04-01T03:06:31.769Z,-4.50
2023-04-01T03:08:59.186Z,-4.70
2023-04-01T03:11:27.398Z,-4.70
2023-04-01T03:13:54.877Z,-4.60
2023-04-01T03:16:22.428Z,-4.70
2023-04-01T03:18:51.806Z,-4.70
2023-04-01T03:21:23.245Z,-4.70
2023-04-01T03:23:51.501Z,-4.80
2023-04-01T03:26:19.323Z,-4.80
2023-04-01T03:28:46.745Z,-4.80
2023-04-01T03:31:14.730Z,-4.70
2023-04-01T03:33:42.257Z,-4.70
2023-04-01T03:36:10.120Z,-4.90
2023-04-01T03:38:37.987Z,-4.80
2023-04-01T03:41:05.449Z,-4.80
2023-04-01T03:43:33.683Z,-4.30
2023-04-01T03:46:01.250Z,-4.60
2023-04-01T03:48:28.710Z,-2.10
2023-04-01T03:50:56.427Z,-4.70
2023-04-01T03:53:24.122Z,-4.70
2023-04-01T03:55:52.556Z,-4.60
2023-04-01T03:58:20.723Z,-4.50
2023-04-01T04:00:48.074Z,-4.80
2023-04-01T04:03:15.746Z,-4.60
2023-04-01T04:05:50.588Z,-4.50
2023-04-01T04:08:18.152Z,-3.70
2023-04-01T04:10:45.889Z,-4.90
2023-04-01T04:13:13.260Z,-4.60
2023-04-01T04:15:40.795Z,-4.90
2023-04-01T04:18:08.215Z,-4.70
2023-04-01T04:20:36.152Z,-4.80
2023-04-01T04:23:06.743Z,-5.00
2023-04-01T04:25:34.273Z,-4.80
2023-04-01T04:28:02.070Z,-4.70
2023-04-01T04:30:29.740Z,-4.70
2023-04-01T04:32:57.593Z,-3.20
2023-04-01T04:35:25.011Z,-4.90
2023-04-01T04:37:52.525Z,-4.60
2023-04-01T04:40:19.969Z,-5.00
2023-04-01T04:42:47.433Z,-4.70
2023-04-01T04:45:15.001Z,-4.60
2023-04-01T04:47:45.679Z,-4.60
2023-04-01T04:50:14.215Z,-4.90
2023-04-01T04:52:41.740Z,-4.70
2023-04-01T04:55:09.385Z,-4.50
2023-04-01T04:57:36.847Z,-4.50
2023-04-01T05:00:05.552Z,-4.40
2023-04-01T05:02:32.999Z,-4.30
2023-04-01T05:05:00.873Z,-4.80
2023-04-01T05:07:28.185Z,-4.30
2023-04-01T05:09:56.558Z,-4.50
2023-04-01T05:12:24.033Z,-4.10
2023-04-01T05:14:51.462Z,-4.00
2023-04-01T05:17:18.925Z,-3.90
2023-04-01T05:19:46.362Z,-3.90
2023-04-01T05:22:13.781Z,-3.70
2023-04-01T05:24:41.171Z,-4.50
2023-04-01T05:27:08.829Z,-4.00
2023-04-01T05:29:36.312Z,-3.90
2023-04-01T05:32:03.993Z,-3.90
2023-04-01T05:34:31.516Z,-3.90
2023-04-01T05:36:58.982Z,-3.60
2023-04-01T05:39:26.679Z,-3.40
2023-04-01T05:41:54.187Z,-3.50
2023-04-01T05:44:21.577Z,-3.50
2023-04-01T05:46:48.932Z,-3.40
2023-04-01T05:49:16.393Z,-3.50
2023-04-01T05:51:43.887Z,-3.30
2023-04-01T05:54:11.533Z,-3.20
2023-04-01T05:56:38.989Z,-3.40
2023-04-01T05:59:06.952Z,-2.90
2023-04-01T06:01:34.283Z,-3.60
2023-04-01T06:04:01.869Z,-2.90
2023-04-01T06:06:30.955Z,-1.90
2023-04-01T06:09:03.175Z,-2.30
2023-04-01T06:12:07.536Z,-2.80
2023-04-01T06:15:13.135Z,-2.50
2023-04-01T06:18:13.683Z,-2.20
2023-04-01T06:21:13.345Z,-2.00
2023-04-01T06:24:06.555Z,-2.00
2023-04-01T06:26:43.730Z,-1.90
2023-04-01T06:29:51.962Z,-1.70
2023-04-01T06:32:42.424Z,-1.60
2023-04-01T06:35:12.453Z,-1.60
2023-04-01T06:38:07.650Z,-1.60
2023-04-01T06:40:53.245Z,-1.40
2023-04-01T06:43:41.683Z,-1.30
2023-04-01T06:46:30.693Z,-1.30
2023-04-01T06:49:30.937Z,-1.00
2023-04-01T06:52:19.273Z,-1.00
2023-04-01T06:55:22.930Z,-0.90
2023-04-01T06:57:54.187Z,-0.70
2023-04-01T07:00:34.030Z,2.20
2023-04-01T07:03:22.997Z,0.80
2023-04-01T07:05:51.697Z,-0.30
2023-04-01T07:08:25.757Z,-0.50
2023-04-01T07:10:59.537Z,1.40
2023-04-01T07:13:47.195Z,1.90
2023-04-01T07:16:21.763Z,0.00
2023-04-01T07:19:14.508Z,1.80
2023-04-01T07:21:47.838Z,0.30
2023-04-01T07:24:42.729Z,2.10
2023-04-01T07:27:12.304Z,1.00
2023-04-01T07:29:39.983Z,0.50
2023-04-01T07:32:21.792Z,2.10
2023-04-01T07:35:11.836Z,2.30
2023-04-01T07:37:42.284Z,1.00
2023-04-01T07:40:23.185Z,1.50
2023-04-01T07:42:55.618Z,2.10
2023-04-01T07:45:53.193Z,2.60
2023-04-01T07:48:46.185Z,1.40
2023-04-01T07:59:38.814Z,1.70
2023-04-01T08:05:34.470Z,2.00
2023-04-01T08:08:29.047Z,2.00
2023-04-01T08:11:17.883Z,2.50
2023-04-01T08:14:03.890Z,2.90
2023-04-01T08:17:10.557Z,3.00
2023-04-01T08:19:58.878Z,2.30
2023-04-01T08:22:41.638Z,2.20
2023-04-01T08:25:17.539Z,3.80
2023-04-01T08:28:13.337Z,4.20
2023-04-01T08:30:48.237Z,2.40
2023-04-01T08:33:32.219Z,4.10
2023-04-01T08:36:20.231Z,2.80
2023-04-01T08:39:24.505Z,2.30
2023-04-01T08:42:10.613Z,2.90
2023-04-01T08:45:15.650Z,2.90
2023-04-01T08:48:20.741Z,2.90
2023-04-01T08:50:53.801Z,2.80
2023-04-01T08:53:42.453Z,2.90
2023-04-01T08:56:38.139Z,3.00
2023-04-01T08:59:14.416Z,3.10
2023-04-01T09:01:53.918Z,3.10
2023-04-01T09:04:37.889Z,3.30
2023-04-01T09:07:18.350Z,4.00
2023-04-01T09:09:45.822Z,3.50
2023-04-01T09:12:25.526Z,3.50
2023-04-01T09:15:14.746Z,3.50
2023-04-01T09:18:03.956Z,3.70
2023-04-01T09:20:55.848Z,3.60
2023-04-01T09:23:53.706Z,3.60
2023-04-01T09:26:59.765Z,3.60
2023-04-01T09:29:44.907Z,3.60
2023-04-01T09:32:37.299Z,3.70
2023-04-01T09:35:32.974Z,3.80
2023-04-01T09:38:09.724Z,3.70
2023-04-01T09:40:57.530Z,3.80
2023-04-01T09:43:43.376Z,3.80
2023-04-01T09:46:58.305Z,3.90
2023-04-01T09:49:51.955Z,3.90
2023-04-01T09:52:48.590Z,3.90
2023-04-01T09:55:37.887Z,4.30
2023-04-01T10:01:03.829Z,4.30
2023-04-01T10:09:01.519Z,6.70
2023-04-01T10:11:38.075Z,5.10
2023-04-01T10:14:19.259Z,5.60
2023-04-01T10:16:46.941Z,5.80
2023-04-01T10:19:47.757Z,6.00
2023-04-01T10:22:48.341Z,6.10
2023-04-01T10:25:28.771Z,6.20
2023-04-01T10:28:05.155Z,6.40
2023-04-01T10:30:51.528Z,6.40
2023-04-01T10:33:56.817Z,6.60
2023-04-01T10:36:44.988Z,6.50
2023-04-01T10:39:31.130Z,6.30
2023-04-01T10:42:29.678Z,6.30
2023-04-01T10:45:00.153Z,6.60
2023-04-01T10:47:27.563Z,6.80
2023-04-01T10:50:30.472Z,6.80
2023-04-01T10:53:28.303Z,7.00
2023-04-01T10:55:55.731Z,6.80
2023-04-01T10:58:32.304Z,6.70
2023-04-01T11:01:25.876Z,6.20
2023-04-01T11:04:21.253Z,7.00
2023-04-01T11:06:58.592Z,7.00
2023-04-01T11:09:52.056Z,6.90
2023-04-01T11:12:41.456Z,6.90
2023-04-01T11:15:51.158Z,6.90
2023-04-01T11:18:57.407Z,7.30
2023-04-01T11:21:46.472Z,7.20
2023-04-01T11:24:29.241Z,7.00
2023-04-01T11:27:16.736Z,7.40
2023-04-01T11:29:59.694Z,7.50
2023-04-01T11:32:27.833Z,7.30
2023-04-01T11:35:20.366Z,7.30
2023-04-01T11:38:32.138Z,7.00
2023-04-01T11:41:24.532Z,6.90
2023-04-01T11:44:10.672Z,7.10
2023-04-01T11:46:58.237Z,6.90
2023-04-01T11:49:47.887Z,7.20
2023-04-01T11:52:36.482Z,7.30
2023-04-01T11:57:55.971Z,7.40
2023-04-01T12:00:26.075Z,7.40
2023-04-01T12:03:27.883Z,7.40
2023-04-01T12:06:20.057Z,7.30
2023-04-01T12:08:47.794Z,7.20
2023-04-01T12:11:31.899Z,7.10
2023-04-01T12:14:18.055Z,6.70
2023-04-01T12:17:09.726Z,6.70
2023-04-01T12:19:52.269Z,6.60
2023-04-01T12:22:38.519Z,6.60
2023-04-01T12:25:18.013Z,6.60
2023-04-01T12:27:52.165Z,6.60
2023-04-01T12:30:25.620Z,6.80
2023-04-01T12:33:52.065Z,6.50
2023-04-01T12:36:44.347Z,6.10
2023-04-01T12:39:36.569Z,5.90
2023-04-01T12:42:03.892Z,5.70
2023-04-01T12:44:39.104Z,5.70
2023-04-01T12:47:40.013Z,5.80
2023-04-01T12:50:28.937Z,5.50
2023-04-01T12:53:22.697Z,5.50
2023-04-01T12:55:51.968Z,5.50
2023-04-01T12:59:03.699Z,5.70
2023-04-01T13:01:47.503Z,5.50
2023-04-01T13:04:26.742Z,5.10
2023-04-01T13:07:10.962Z,5.70
2023-04-01T13:10:18.876Z,5.60
2023-04-01T13:13:12.649Z,5.60
2023-04-01T13:15:47.611Z,5.60
2023-04-01T13:18:41.391Z,5.70
2023-04-01T13:21:20.528Z,5.70
2023-04-01T13:24:22.967Z,5.90
2023-04-01T13:27:22.434Z,5.70
2023-04-01T13:45:36.899Z,5.70
2023-04-01T13:48:24.343Z,5.70
2023-04-01T13:51:09.821Z,5.60
2023-04-01T13:53:54.314Z,5.60
2023-04-01T13:56:43.786Z,5.40
2023-04-01T13:59:42.100Z,5.30
2023-04-01T14:02:41.017Z,5.40
2023-04-01T14:05:43.310Z,5.40
2023-04-01T14:08:47.964Z,5.50
2023-04-01T14:11:30.977Z,5.40
2023-04-01T14:14:23.963Z,5.40
2023-04-01T14:17:20.089Z,5.50
2023-04-01T14:20:16.893Z,5.50
2023-04-01T14:22:52.846Z,5.50
2023-04-01T14:25:39.857Z,5.50
2023-04-01T14:28:26.616Z,5.40
2023-04-01T14:31:12.975Z,5.30
2023-04-01T14:34:00.803Z,5.30
2023-04-01T14:37:14.151Z,5.30
2023-04-01T14:40:16.684Z,5.30
2023-04-01T14:43:15.209Z,5.50
2023-04-01T14:46:07.492Z,5.10
2023-04-01T14:48:50.711Z,5.10
2023-04-01T14:51:32.052Z,5.10
2023-04-01T14:54:23.983Z,5.10
2023-04-01T14:57:28.451Z,5.20
2023-04-01T15:00:07.714Z,5.80
2023-04-01T15:03:03.355Z,5.30
2023-04-01T15:05:54.770Z,5.20
2023-04-01T15:08:37.911Z,5.20
2023-04-01T15:11:14.784Z,5.20
2023-04-01T15:13:54.241Z,5.00
2023-04-01T15:16:36.463Z,5.00
2023-04-01T15:19:21.274Z,5.30
2023-04-01T15:22:35.471Z,5.10
2023-04-01T15:25:36.890Z,5.10
2023-04-01T15:28:25.509Z,5.10
2023-04-01T15:31:40.588Z,5.00
2023-04-01T15:34:23.735Z,5.10
2023-04-01T15:36:52.582Z,4.90
2023-04-01T15:39:50.851Z,5.10
2023-04-01T15:43:00.311Z,4.80
2023-04-01T15:45:51.350Z,4.80
2023-04-01T15:48:28.771Z,4.80
2023-04-01T15:51:21.427Z,4.70
2023-04-01T15:54:16.479Z,4.70
2023-04-01T15:57:09.495Z,4.70
2023-04-01T16:00:01.716Z,4.70
2023-04-01T16:02:47.571Z,4.70
2023-04-01T16:05:42.177Z,4.40
2023-04-01T16:08:24.389Z,4.60
2023-04-01T16:11:01.248Z,5.00
2023-04-01T16:13:47.494Z,4.60
2023-04-01T16:16:34.556Z,4.50
2023-04-01T16:19:14.137Z,4.40
2023-04-01T16:21:51.392Z,4.40
2023-04-01T16:24:31.054Z,4.30
2023-04-01T16:27:04.970Z,4.30
2023-04-01T16:30:13.792Z,4.40
2023-04-01T16:32:58.572Z,4.30
2023-04-01T16:35:49.867Z,4.30
2023-04-01T16:38:25.531Z,4.20
2023-04-01T16:41:18.999Z,4.10
2023-04-01T16:43:55.713Z,4.20
2023-04-01T16:46:47.485Z,4.20
2023-04-01T16:49:18.173Z,4.10
2023-04-01T16:51:53.522Z,4.50
2023-04-01T16:54:36.668Z,4.00
2023-04-01T16:57:10.443Z,4.60
2023-04-01T16:59:42.511Z,3.90
2023-04-01T17:02:12.201Z,3.80
2023-04-01T17:04:55.484Z,3.70
2023-04-01T17:07:39.149Z,3.80
2023-04-01T17:10:34.730Z,3.60
2023-04-01T17:13:23.325Z,3.50
2023-04-01T17:16:22.223Z,3.50
2023-04-01T17:19:12.182Z,3.40
2023-04-01T17:22:08.942Z,3.40
2023-04-01T17:24:54.816Z,3.30
2023-04-01T17:27:28.170Z,3.80
2023-04-01T17:30:16.829Z,3.30
2023-04-01T17:33:04.099Z,3.20
2023-04-01T17:36:04.040Z,3.10
2023-04-01T17:39:01.779Z,3.10
2023-04-01T17:41:56.091Z,3.00
2023-04-01T17:44:33.903Z,2.90
2023-04-01T17:47:22.598Z,2.90
2023-04-01T17:50:02.116Z,2.90
2023-04-01T17:52:47.307Z,2.80
2023-04-01T17:55:39.650Z,2.80
2023-04-01T17:58:21.870Z,2.70
2023-04-01T18:01:14.852Z,3.60
2023-04-01T18:04:00.612Z,2.50
2023-04-01T18:06:34.986Z,2.40
2023-04-01T18:09:11.390Z,2.30
2023-04-01T18:12:03.669Z,2.30
2023-04-01T18:14:42.984Z,2.30
2023-04-01T18:17:25.226Z,2.20
2023-04-01T18:20:37.456Z,2.20
2023-04-01T18:23:25.323Z,2.20
2023-04-01T18:26:03.015Z,2.50
2023-04-01T18:28:56.824Z,2.50
2023-04-01T18:31:39.445Z,2.10
2023-04-01T18:34:19.769Z,2.10
2023-04-01T18:36:52.210Z,2.10
2023-04-01T18:39:25.606Z,1.90
2023-04-01T18:42:38.442Z,2.00
2023-04-01T18:45:21.276Z,2.00
2023-04-01T18:48:02.569Z,1.90
2023-04-01T18:50:54.907Z,1.90
2023-04-01T18:53:25.481Z,3.20
2023-04-01T18:56:13.301Z,1.80
2023-04-01T18:59:13.837Z,1.50
2023-04-01T19:02:03.438Z,1.80
2023-04-01T19:05:08.834Z,1.80
2023-04-01T19:07:47.045Z,1.90
2023-04-01T19:10:24.222Z,1.80
2023-04-01T19:13:27.192Z,1.80
2023-04-01T19:16:10.230Z,1.70
2023-04-01T19:18:43.626Z,1.60
2023-04-01T19:21:15.624Z,1.80
2023-04-01T19:24:06.747Z,2.70
2023-04-01T19:26:58.749Z,1.50
2023-04-01T19:29:40.590Z,1.60
2023-04-01T19:32:25.936Z,1.40
2023-04-01T19:35:07.960Z,1.40
2023-04-01T19:37:45.450Z,1.40
2023-04-01T19:40:32.569Z,1.30
2023-04-01T19:43:48.022Z,1.30
2023-04-01T19:46:30.052Z,1.10
2023-04-01T19:49:06.699Z,1.20
2023-04-01T19:51:40.147Z,1.20
2023-04-01T19:54:28.976Z,1.20
2023-04-01T19:57:13.957Z,1.20
2023-04-01T19:59:44.391Z,1.20
2023-04-01T20:02:37.229Z,2.60
2023-04-01T20:05:32.073Z,1.10
2023-04-01T20:08:31.621Z,1.10
2023-04-01T20:11:13.578Z,1.00
2023-04-01T20:14:05.957Z,1.30
2023-04-01T20:16:51.200Z,1.00
2023-04-01T20:19:34.252Z,0.90
2023-04-01T20:22:03.157Z,0.90
2023-04-01T20:24:42.330Z,1.80
2023-04-01T20:27:18.556Z,0.90
2023-04-01T20:29:57.975Z,0.90
2023-04-01T20:32:44.542Z,0.90
2023-04-01T20:35:36.858Z,1.00
2023-04-01T20:38:16.695Z,0.90
2023-04-01T20:40:52.141Z,0.90
2023-04-01T20:43:37.891Z,1.30
2023-04-01T20:46:20.511Z,0.80
2023-04-01T20:49:15.958Z,0.80
2023-04-01T20:51:54.129Z,0.80
2023-04-01T20:54:46.613Z,0.40
2023-04-01T20:58:06.882Z,0.70
2023-04-01T21:00:57.804Z,0.80
2023-04-01T21:03:25.468Z,0.40
2023-04-01T21:06:29.279Z,0.80
2023-04-01T21:09:15.090Z,0.50
2023-04-01T21:12:03.232Z,0.60
2023-04-01T21:14:50.827Z,0.50
2023-04-01T21:17:35.245Z,0.60
2023-04-01T21:20:11.338Z,0.50
2023-04-01T21:23:07.973Z,1.90
2023-04-01T21:25:41.496Z,0.40
2023-04-01T21:28:17.961Z,0.30
2023-04-01T21:31:16.605Z,0.30
2023-04-01T21:34:24.497Z,0.90
2023-04-01T21:37:27.126Z,0.20
2023-04-01T21:40:26.735Z,0.00
2023-04-01T21:43:09.075Z,0.00
2023-04-01T21:46:01.627Z,0.40
2023-04-01T21:48:54.070Z,0.00
2023-04-01T21:51:49.154Z,0.00
2023-04-01T21:54:53.823Z,0.00
2023-04-01T21:57:45.274Z,-0.10
2023-04-01T22:00:24.374Z,-0.10
2023-04-01T22:03:27.789Z,-0.10
2023-04-01T22:06:20.708Z,0.20
2023-04-01T22:08:54.309Z,-0.20
2023-04-01T22:11:50.823Z,0.40
2023-04-01T22:14:27.552Z,-0.20
2023-04-01T22:16:57.931Z,-0.20
2023-04-01T22:19:34.551Z,1.50
2023-04-01T22:22:23.632Z,0.00
2023-04-01T22:25:23.674Z,-0.30
2023-04-01T22:28:02.324Z,-0.20
2023-04-01T22:30:52.874Z,-0.20
2023-04-01T22:33:28.957Z,-0.30
2023-04-01T22:36:02.528Z,-0.30
2023-04-01T22:38:30.016Z,-0.30
2023-04-01T22:41:17.600Z,0.40
2023-04-01T22:43:46.225Z,0.40
2023-04-01T22:46:45.183Z,-0.10
2023-04-01T22:49:12.525Z,-0.40
2023-04-01T22:52:01.219Z,-0.50
2023-04-01T22:54:46.674Z,-0.50
2023-04-01T22:57:31.880Z,-0.40
2023-04-01T23:00:11.342Z,-1.10
2023-04-01T23:02:43.158Z,-0.70
2023-04-01T23:05:16.407Z,0.00
2023-04-01T23:08:03.940Z,-0.80
2023-04-01T23:10:51.093Z,-0.80
2023-04-01T23:13:23.575Z,-0.80
2023-04-01T23:15:54.131Z,0.20
2023-04-01T23:18:30.752Z,-0.90
2023-04-01T23:21:12.966Z,-0.90
2023-04-01T23:23:49.476Z,-0.90
2023-04-01T23:26:33.932Z,-0.90
2023-04-01T23:29:02.581Z,-1.00
2023-04-01T23:31:44.273Z,-0.20
2023-04-01T23:34:14.889Z,-0.90
2023-04-01T23:36:52.099Z,-1.00
2023-04-01T23:39:37.866Z,-1.00
2023-04-01T23:42:30.892Z,-1.10
2023-04-01T23:45:21.997Z,-1.10
2023-04-01T23:47:51.750Z,-1.10
2023-04-01T23:50:24.432Z,-1.10
2023-04-01T23:53:16.976Z,-1.10
2023-04-01T23:55:44.614Z,-1.20
2023-04-01T23:58:45.980Z,-1.20
